sensor_id;sensor_type;location;lat;lon;timestamp;pressure;altitude;pressure_sealevel;temperature;humidity
78839;BME280;68405;47.190;27.558;2023-04-24T00:01:02;99544.79;;;9.14;65.25
78839;BME280;68405;47.190;27.558;2023-04-24T00:03:31;99541.44;;;9.10;65.82
78839;BME280;68405;47.190;27.558;2023-04-24T00:06:01;99544.91;;;9.10;66.69
78839;BME280;68405;47.190;27.558;2023-04-24T00:08:30;99546.67;;;9.09;65.88
78839;BME280;68405;47.190;27.558;2023-04-24T00:10:59;99542.05;;;9.07;65.54
78839;BME280;68405;47.190;27.558;2023-04-24T00:13:29;99543.45;;;9.07;67.24
78839;BME280;68405;47.190;27.558;2023-04-24T00:15:58;99542.66;;;9.05;66.09
78839;BME280;68405;47.190;27.558;2023-04-24T00:18:27;99541.05;;;9.01;67.68
78839;BME280;68405;47.190;27.558;2023-04-24T00:20:56;99538.39;;;8.98;67.43
78839;BME280;68405;47.190;27.558;2023-04-24T00:23:25;99534.58;;;8.93;67.10
78839;BME280;68405;47.190;27.558;2023-04-24T00:25:54;99534.66;;;8.90;65.82
78839;BME280;68405;47.190;27.558;2023-04-24T00:28:24;99530.43;;;8.87;67.13
78839;BME280;68405;47.190;27.558;2023-04-24T00:30:53;99532.54;;;8.86;67.92
78839;BME280;68405;47.190;27.558;2023-04-24T00:33:22;99529.23;;;8.81;67.89
78839;BME280;68405;47.190;27.558;2023-04-24T00:35:51;99524.77;;;8.75;68.93
78839;BME280;68405;47.190;27.558;2023-04-24T00:38:20;99521.29;;;8.70;68.62
78839;BME280;68405;47.190;27.558;2023-04-24T00:40:50;99522.37;;;8.69;69.15
78839;BME280;68405;47.190;27.558;2023-04-24T00:43:19;99519.19;;;8.66;67.66
78839;BME280;68405;47.190;27.558;2023-04-24T00:45:48;99521.34;;;8.63;68.13
78839;BME280;68405;47.190;27.558;2023-04-24T00:48:17;99521.62;;;8.60;70.74
78839;BME280;68405;47.190;27.558;2023-04-24T00:50:47;99522.31;;;8.60;68.61
78839;BME280;68405;47.190;27.558;2023-04-24T00:53:16;99522.13;;;8.60;68.54
78839;BME280;68405;47.190;27.558;2023-04-24T00:55:45;99524.80;;;8.58;70.22
78839;BME280;68405;47.190;27.558;2023-04-24T00:58:14;99522.44;;;8.56;71.16
78839;BME280;68405;47.190;27.558;2023-04-24T01:00:43;99521.86;;;8.52;69.36
78839;BME280;68405;47.190;27.558;2023-04-24T01:03:14;99523.55;;;8.48;72.20
78839;BME280;68405;47.190;27.558;2023-04-24T01:05:44;99523.34;;;8.43;72.80
78839;BME280;68405;47.190;27.558;2023-04-24T01:08:14;99521.73;;;8.38;72.23
78839;BME280;68405;47.190;27.558;2023-04-24T01:10:44;99520.84;;;8.34;72.55
78839;BME280;68405;47.190;27.558;2023-04-24T01:13:15;99520.96;;;8.30;73.28
78839;BME280;68405;47.190;27.558;2023-04-24T01:15:45;99517.43;;;8.26;73.39
78839;BME280;68405;47.190;27.558;2023-04-24T01:18:14;99512.13;;;8.24;72.77
78839;BME280;68405;47.190;27.558;2023-04-24T01:20:44;99508.96;;;8.21;73.63
78839;BME280;68405;47.190;27.558;2023-04-24T01:23:13;99506.51;;;8.16;72.83
78839;BME280;68405;47.190;27.558;2023-04-24T01:25:43;99507.52;;;8.12;71.88
78839;BME280;68405;47.190;27.558;2023-04-24T01:28:12;99507.80;;;8.07;72.98
78839;BME280;68405;47.190;27.558;2023-04-24T01:30:42;99503.28;;;8.02;71.17
78839;BME280;68405;47.190;27.558;2023-04-24T01:33:11;99502.06;;;7.97;70.79
78839;BME280;68405;47.190;27.558;2023-04-24T01:35:40;99499.77;;;7.93;72.23
78839;BME280;68405;47.190;27.558;2023-04-24T01:38:10;99494.90;;;7.88;72.74
78839;BME280;68405;47.190;27.558;2023-04-24T01:40:39;99491.55;;;7.84;73.22
78839;BME280;68405;47.190;27.558;2023-04-24T01:43:08;99490.38;;;7.83;72.41
78839;BME280;68405;47.190;27.558;2023-04-24T01:45:37;99488.89;;;7.81;74.62
78839;BME280;68405;47.190;27.558;2023-04-24T01:48:06;99483.63;;;7.78;71.73
78839;BME280;68405;47.190;27.558;2023-04-24T01:50:35;99485.39;;;7.76;72.10
78839;BME280;68405;47.190;27.558;2023-04-24T01:53:04;99479.17;;;7.75;72.02
78839;BME280;68405;47.190;27.558;2023-04-24T01:55:34;99481.52;;;7.72;72.85
78839;BME280;68405;47.190;27.558;2023-04-24T01:58:03;99477.42;;;7.70;73.08
78839;BME280;68405;47.190;27.558;2023-04-24T02:00:32;99471.05;;;7.70;73.61
78839;BME280;68405;47.190;27.558;2023-04-24T02:03:01;99470.01;;;7.70;74.61
78839;BME280;68405;47.190;27.558;2023-04-24T02:05:30;99468.80;;;7.70;73.93
78839;BME280;68405;47.190;27.558;2023-04-24T02:07:59;99465.62;;;7.67;72.12
78839;BME280;68405;47.190;27.558;2023-04-24T02:10:28;99466.56;;;7.64;73.40
78839;BME280;68405;47.190;27.558;2023-04-24T02:12:57;99458.85;;;7.62;73.11
78839;BME280;68405;47.190;27.558;2023-04-24T02:15:27;99459.63;;;7.58;71.84
78839;BME280;68405;47.190;27.558;2023-04-24T02:17:56;99459.17;;;7.56;73.87
78839;BME280;68405;47.190;27.558;2023-04-24T02:20:26;99457.48;;;7.55;74.16
78839;BME280;68405;47.190;27.558;2023-04-24T02:22:55;99459.41;;;7.54;74.30
78839;BME280;68405;47.190;27.558;2023-04-24T02:25:25;99459.96;;;7.53;75.98
78839;BME280;68405;47.190;27.558;2023-04-24T02:27:54;99458.98;;;7.51;76.10
78839;BME280;68405;47.190;27.558;2023-04-24T02:30:23;99462.43;;;7.51;75.06
78839;BME280;68405;47.190;27.558;2023-04-24T02:32:52;99462.13;;;7.50;76.70
78839;BME280;68405;47.190;27.558;2023-04-24T02:35:21;99458.55;;;7.48;75.87
78839;BME280;68405;47.190;27.558;2023-04-24T02:37:50;99457.41;;;7.45;76.13
78839;BME280;68405;47.190;27.558;2023-04-24T02:40:19;99455.58;;;7.43;74.67
78839;BME280;68405;47.190;27.558;2023-04-24T02:42:48;99460.65;;;7.41;76.45
78839;BME280;68405;47.190;27.558;2023-04-24T02:45:17;99463.00;;;7.37;77.21
78839;BME280;68405;47.190;27.558;2023-04-24T02:47:46;99458.55;;;7.35;75.26
78839;BME280;68405;47.190;27.558;2023-04-24T02:50:15;99458.33;;;7.31;76.43
78839;BME280;68405;47.190;27.558;2023-04-24T02:52:44;99455.80;;;7.29;76.29
78839;BME280;68405;47.190;27.558;2023-04-24T02:55:14;99452.75;;;7.26;75.17
78839;BME280;68405;47.190;27.558;2023-04-24T02:57:43;99454.48;;;7.26;76.54
78839;BME280;68405;47.190;27.558;2023-04-24T03:00:14;99453.09;;;7.27;77.27
78839;BME280;68405;47.190;27.558;2023-04-24T03:02:43;99453.27;;;7.26;76.84
78839;BME280;68405;47.190;27.558;2023-04-24T03:05:12;99451.42;;;7.25;76.15
78839;BME280;68405;47.190;27.558;2023-04-24T03:07:41;99453.38;;;7.23;74.93
78839;BME280;68405;47.190;27.558;2023-04-24T03:10:11;99452.71;;;7.21;76.61
78839;BME280;68405;47.190;27.558;2023-04-24T03:12:40;99455.80;;;7.23;76.47
78839;BME280;68405;47.190;27.558;2023-04-24T03:15:11;99456.26;;;7.25;77.34
78839;BME280;68405;47.190;27.558;2023-04-24T03:17:40;99457.25;;;7.26;77.14
78839;BME280;68405;47.190;27.558;2023-04-24T03:20:10;99456.70;;;7.28;76.51
78839;BME280;68405;47.190;27.558;2023-04-24T03:22:39;99460.98;;;7.29;76.75
78839;BME280;68405;47.190;27.558;2023-04-24T03:25:10;99461.81;;;7.30;77.42
78839;BME280;68405;47.190;27.558;2023-04-24T03:27:39;99462.98;;;7.32;75.43
78839;BME280;68405;47.190;27.558;2023-04-24T03:30:10;99462.86;;;7.36;77.41
78839;BME280;68405;47.190;27.558;2023-04-24T03:32:39;99468.91;;;7.42;77.50
78839;BME280;68405;47.190;27.558;2023-04-24T03:35:09;99469.48;;;7.46;75.85
78839;BME280;68405;47.190;27.558;2023-04-24T03:37:38;99470.99;;;7.48;76.25
78839;BME280;68405;47.190;27.558;2023-04-24T03:40:09;99468.98;;;7.51;77.21
78839;BME280;68405;47.190;27.558;2023-04-24T03:42:38;99467.95;;;7.57;76.33
78839;BME280;68405;47.190;27.558;2023-04-24T03:45:10;99471.04;;;7.65;76.16
78839;BME280;68405;47.190;27.558;2023-04-24T03:47:39;99473.27;;;7.71;75.73
78839;BME280;68405;47.190;27.558;2023-04-24T03:50:10;99478.34;;;7.80;74.84
78839;BME280;68405;47.190;27.558;2023-04-24T03:52:39;99479.02;;;7.87;74.77
78839;BME280;68405;47.190;27.558;2023-04-24T03:55:09;99483.37;;;7.92;75.27
78839;BME280;68405;47.190;27.558;2023-04-24T03:57:41;99484.52;;;8.06;74.44
78839;BME280;68405;47.190;27.558;2023-04-24T04:00:12;99486.61;;;8.27;74.17
78839;BME280;68405;47.190;27.558;2023-04-24T04:02:42;99489.45;;;8.36;73.97
78839;BME280;68405;47.190;27.558;2023-04-24T04:05:12;99489.76;;;8.49;73.38
78839;BME280;68405;47.190;27.558;2023-04-24T04:07:41;99488.90;;;8.65;72.67
78839;BME280;68405;47.190;27.558;2023-04-24T04:10:11;99483.33;;;8.82;72.02
78839;BME280;68405;47.190;27.558;2023-04-24T04:12:40;99482.44;;;9.03;71.19
78839;BME280;68405;47.190;27.558;2023-04-24T04:15:11;99484.02;;;9.27;70.68
78839;BME280;68405;47.190;27.558;2023-04-24T04:17:40;99479.39;;;9.59;69.81
78839;BME280;68405;47.190;27.558;2023-04-24T04:20:11;99485.16;;;10.00;68.53
78839;BME280;68405;47.190;27.558;2023-04-24T04:22:40;99484.76;;;10.42;67.36
78839;BME280;68405;47.190;27.558;2023-04-24T04:25:11;99484.63;;;11.04;66.08
78839;BME280;68405;47.190;27.558;2023-04-24T04:27:42;99485.44;;;11.88;62.78
78839;BME280;68405;47.190;27.558;2023-04-24T04:30:12;99486.34;;;12.58;59.75
78839;BME280;68405;47.190;27.558;2023-04-24T04:32:41;99490.02;;;13.41;58.29
78839;BME280;68405;47.190;27.558;2023-04-24T04:35:10;99485.41;;;14.17;56.41
78839;BME280;68405;47.190;27.558;2023-04-24T04:37:40;99487.76;;;14.63;54.76
78839;BME280;68405;47.190;27.558;2023-04-24T04:40:10;99487.15;;;15.18;53.67
78839;BME280;68405;47.190;27.558;2023-04-24T04:42:40;99482.92;;;15.73;50.80
78839;BME280;68405;47.190;27.558;2023-04-24T04:45:11;99484.71;;;16.40;49.09
78839;BME280;68405;47.190;27.558;2023-04-24T04:47:40;99481.23;;;16.90;46.70
78839;BME280;68405;47.190;27.558;2023-04-24T04:50:10;99486.22;;;17.13;45.35
78839;BME280;68405;47.190;27.558;2023-04-24T04:52:39;99490.21;;;17.11;45.43
78839;BME280;68405;47.190;27.558;2023-04-24T04:55:09;99488.09;;;17.32;45.13
78839;BME280;68405;47.190;27.558;2023-04-24T04:57:41;99485.87;;;17.59;44.96
78839;BME280;68405;47.190;27.558;2023-04-24T05:00:12;99483.08;;;17.79;45.24
78839;BME280;68405;47.190;27.558;2023-04-24T05:02:42;99482.30;;;18.55;44.26
78839;BME280;68405;47.190;27.558;2023-04-24T05:05:10;99482.91;;;18.98;42.52
78839;BME280;68405;47.190;27.558;2023-04-24T05:07:39;99486.13;;;18.99;41.17
78839;BME280;68405;47.190;27.558;2023-04-24T05:10:10;99487.56;;;19.72;40.11
78839;BME280;68405;47.190;27.558;2023-04-24T05:12:39;99489.61;;;20.74;38.86
78839;BME280;68405;47.190;27.558;2023-04-24T05:15:10;99489.04;;;21.17;37.96
78839;BME280;68405;47.190;27.558;2023-04-24T05:17:39;99494.01;;;20.50;36.97
78839;BME280;68405;47.190;27.558;2023-04-24T05:20:09;99495.73;;;20.14;36.92
78839;BME280;68405;47.190;27.558;2023-04-24T05:22:38;99490.19;;;19.81;38.33
78839;BME280;68405;47.190;27.558;2023-04-24T05:25:09;99493.91;;;20.45;37.81
78839;BME280;68405;47.190;27.558;2023-04-24T05:27:38;99492.05;;;21.27;36.35
78839;BME280;68405;47.190;27.558;2023-04-24T05:30:09;99492.92;;;21.99;37.69
78839;BME280;68405;47.190;27.558;2023-04-24T05:32:38;99493.19;;;22.83;34.68
78839;BME280;68405;47.190;27.558;2023-04-24T05:35:09;99493.02;;;23.56;34.29
78839;BME280;68405;47.190;27.558;2023-04-24T05:37:38;99492.73;;;23.55;32.39
78839;BME280;68405;47.190;27.558;2023-04-24T05:40:10;99498.02;;;23.85;32.19
78839;BME280;68405;47.190;27.558;2023-04-24T05:42:39;99494.15;;;22.84;32.74
78839;BME280;68405;47.190;27.558;2023-04-24T05:45:10;99492.57;;;23.49;33.80
78839;BME280;68405;47.190;27.558;2023-04-24T05:47:45;99493.54;;;23.61;31.66
78839;BME280;68405;47.190;27.558;2023-04-24T05:50:14;99489.17;;;23.34;31.26
78839;BME280;68405;47.190;27.558;2023-04-24T05:52:44;99489.57;;;23.78;31.35
78839;BME280;68405;47.190;27.558;2023-04-24T05:55:13;99488.89;;;24.47;30.44
78839;BME280;68405;47.190;27.558;2023-04-24T05:57:45;99490.06;;;25.22;31.86
78839;BME280;68405;47.190;27.558;2023-04-24T06:00:16;99493.02;;;25.87;29.16
78839;BME280;68405;47.190;27.558;2023-04-24T06:02:48;99490.91;;;25.95;28.50
78839;BME280;68405;47.190;27.558;2023-04-24T06:05:18;99486.66;;;24.94;28.83
78839;BME280;68405;47.190;27.558;2023-04-24T06:07:47;99484.40;;;26.41;30.50
78839;BME280;68405;47.190;27.558;2023-04-24T06:10:18;99484.65;;;26.61;26.62
78839;BME280;68405;47.190;27.558;2023-04-24T06:12:47;99480.11;;;26.55;27.47
78839;BME280;68405;47.190;27.558;2023-04-24T06:15:17;99485.63;;;26.77;27.88
78839;BME280;68405;47.190;27.558;2023-04-24T06:17:47;99482.49;;;27.32;26.76
78839;BME280;68405;47.190;27.558;2023-04-24T06:20:16;99481.05;;;27.35;25.67
78839;BME280;68405;47.190;27.558;2023-04-24T06:22:46;99485.08;;;27.61;25.60
78839;BME280;68405;47.190;27.558;2023-04-24T06:25:19;99487.21;;;26.76;26.54
78839;BME280;68405;47.190;27.558;2023-04-24T06:27:50;99485.27;;;26.57;26.96
78839;BME280;68405;47.190;27.558;2023-04-24T06:30:19;99486.94;;;26.43;27.96
78839;BME280;68405;47.190;27.558;2023-04-24T06:32:50;99483.33;;;27.09;26.61
78839;BME280;68405;47.190;27.558;2023-04-24T06:35:19;99486.11;;;27.76;25.84
78839;BME280;68405;47.190;27.558;2023-04-24T06:37:49;99489.04;;;25.21;28.13
78839;BME280;68405;47.190;27.558;2023-04-24T06:40:18;99488.02;;;25.30;28.67
78839;BME280;68405;47.190;27.558;2023-04-24T06:42:47;99488.48;;;26.25;27.64
78839;BME280;68405;47.190;27.558;2023-04-24T06:45:18;99488.59;;;26.92;26.83
78839;BME280;68405;47.190;27.558;2023-04-24T06:47:47;99492.48;;;26.14;27.38
78839;BME280;68405;47.190;27.558;2023-04-24T06:50:16;99486.78;;;27.12;26.50
78839;BME280;68405;47.190;27.558;2023-04-24T06:52:46;99487.63;;;27.38;26.34
78839;BME280;68405;47.190;27.558;2023-04-24T06:55:15;99485.36;;;27.78;25.86
78839;BME280;68405;47.190;27.558;2023-04-24T06:57:45;99484.30;;;28.42;25.29
78839;BME280;68405;47.190;27.558;2023-04-24T07:00:15;99489.02;;;29.21;25.67
78839;BME280;68405;47.190;27.558;2023-04-24T07:02:45;99484.21;;;29.25;23.40
78839;BME280;68405;47.190;27.558;2023-04-24T07:05:14;99487.06;;;28.94;24.74
78839;BME280;68405;47.190;27.558;2023-04-24T07:07:44;99487.88;;;27.68;25.43
78839;BME280;68405;47.190;27.558;2023-04-24T07:10:13;99484.20;;;27.80;25.47
78839;BME280;68405;47.190;27.558;2023-04-24T07:12:43;99481.57;;;28.16;25.27
78839;BME280;68405;47.190;27.558;2023-04-24T07:15:13;99482.36;;;29.03;24.46
78839;BME280;68405;47.190;27.558;2023-04-24T07:17:42;99488.16;;;29.42;22.67
78839;BME280;68405;47.190;27.558;2023-04-24T07:20:12;99478.50;;;29.98;21.53
78839;BME280;68405;47.190;27.558;2023-04-24T07:22:43;99476.34;;;29.82;21.62
78839;BME280;68405;47.190;27.558;2023-04-24T07:25:12;99481.35;;;29.73;21.54
78839;BME280;68405;47.190;27.558;2023-04-24T07:27:42;99473.17;;;29.97;21.04
78839;BME280;68405;47.190;27.558;2023-04-24T07:30:13;99474.77;;;30.62;21.53
78839;BME280;68405;47.190;27.558;2023-04-24T07:32:42;99475.67;;;31.14;20.80
78839;BME280;68405;47.190;27.558;2023-04-24T07:35:12;99472.37;;;31.08;19.60
78839;BME280;68405;47.190;27.558;2023-04-24T07:37:41;99480.28;;;31.15;20.45
78839;BME280;68405;47.190;27.558;2023-04-24T07:40:14;99480.34;;;30.93;20.84
78839;BME280;68405;47.190;27.558;2023-04-24T07:42:44;99473.58;;;30.08;20.62
78839;BME280;68405;47.190;27.558;2023-04-24T07:45:13;99475.06;;;30.26;20.66
78839;BME280;68405;47.190;27.558;2023-04-24T07:47:43;99475.64;;;29.69;20.62
78839;BME280;68405;47.190;27.558;2023-04-24T07:50:13;99469.77;;;28.96;20.82
78839;BME280;68405;47.190;27.558;2023-04-24T07:52:43;99469.55;;;29.48;20.86
78839;BME280;68405;47.190;27.558;2023-04-24T07:55:12;99475.83;;;29.55;20.49
78839;BME280;68405;47.190;27.558;2023-04-24T07:57:41;99473.03;;;29.99;20.41
78839;BME280;68405;47.190;27.558;2023-04-24T08:00:12;99467.35;;;29.66;19.94
78839;BME280;68405;47.190;27.558;2023-04-24T08:02:42;99470.23;;;29.56;19.99
78839;BME280;68405;47.190;27.558;2023-04-24T08:05:12;99467.10;;;29.35;20.54
78839;BME280;68405;47.190;27.558;2023-04-24T08:07:41;99460.95;;;29.98;20.81
78839;BME280;68405;47.190;27.558;2023-04-24T08:10:11;99463.15;;;30.05;20.24
78839;BME280;68405;47.190;27.558;2023-04-24T08:12:41;99464.59;;;29.98;19.93
78839;BME280;68405;47.190;27.558;2023-04-24T08:15:11;99467.02;;;29.75;19.34
78839;BME280;68405;47.190;27.558;2023-04-24T08:17:41;99470.36;;;29.83;19.74
78839;BME280;68405;47.190;27.558;2023-04-24T08:20:12;99463.26;;;29.94;19.85
78839;BME280;68405;47.190;27.558;2023-04-24T08:22:42;99462.55;;;30.09;19.50
78839;BME280;68405;47.190;27.558;2023-04-24T08:25:12;99456.64;;;30.09;19.39
78839;BME280;68405;47.190;27.558;2023-04-24T08:27:42;99456.11;;;29.76;18.98
78839;BME280;68405;47.190;27.558;2023-04-24T08:30:13;99457.25;;;29.96;19.52
78839;BME280;68405;47.190;27.558;2023-04-24T08:32:42;99451.87;;;29.85;19.24
78839;BME280;68405;47.190;27.558;2023-04-24T08:35:11;99448.56;;;30.23;19.47
78839;BME280;68405;47.190;27.558;2023-04-24T08:37:40;99447.85;;;29.85;19.34
78839;BME280;68405;47.190;27.558;2023-04-24T08:40:13;99448.98;;;29.85;19.43
78839;BME280;68405;47.190;27.558;2023-04-24T08:42:43;99445.14;;;29.57;19.52
78839;BME280;68405;47.190;27.558;2023-04-24T08:45:13;99446.93;;;29.85;19.43
78839;BME280;68405;47.190;27.558;2023-04-24T08:47:44;99443.86;;;29.40;19.57
78839;BME280;68405;47.190;27.558;2023-04-24T08:50:14;99441.48;;;29.39;19.68
78839;BME280;68405;47.190;27.558;2023-04-24T08:52:43;99449.02;;;29.32;19.63
78839;BME280;68405;47.190;27.558;2023-04-24T08:55:13;99439.18;;;29.34;19.92
78839;BME280;68405;47.190;27.558;2023-04-24T08:57:45;99437.35;;;29.40;19.54
78839;BME280;68405;47.190;27.558;2023-04-24T09:00:18;99438.89;;;29.08;19.81
78839;BME280;68405;47.190;27.558;2023-04-24T09:02:49;99431.52;;;29.11;19.66
78839;BME280;68405;47.190;27.558;2023-04-24T09:05:20;99425.08;;;28.58;19.22
78839;BME280;68405;47.190;27.558;2023-04-24T09:07:52;99425.17;;;27.80;19.74
78839;BME280;68405;47.190;27.558;2023-04-24T09:10:23;99421.20;;;27.86;20.13
78839;BME280;68405;47.190;27.558;2023-04-24T09:12:53;99415.06;;;27.79;20.43
78839;BME280;68405;47.190;27.558;2023-04-24T09:15:24;99422.57;;;27.60;20.61
78839;BME280;68405;47.190;27.558;2023-04-24T09:17:53;99420.21;;;27.53;20.69
78839;BME280;68405;47.190;27.558;2023-04-24T09:20:23;99422.23;;;27.36;20.82
78839;BME280;68405;47.190;27.558;2023-04-24T09:22:57;99409.61;;;27.36;21.21
78839;BME280;68405;47.190;27.558;2023-04-24T09:25:32;99413.77;;;27.75;21.09
78839;BME280;68405;47.190;27.558;2023-04-24T09:28:03;99409.27;;;28.11;20.68
78839;BME280;68405;47.190;27.558;2023-04-24T09:30:34;99413.04;;;28.09;20.14
78839;BME280;68405;47.190;27.558;2023-04-24T09:33:13;99401.42;;;28.17;20.17
78839;BME280;68405;47.190;27.558;2023-04-24T09:35:48;99402.41;;;28.14;20.17
78839;BME280;68405;47.190;27.558;2023-04-24T09:38:19;99393.25;;;28.17;20.05
78839;BME280;68405;47.190;27.558;2023-04-24T09:40:50;99387.73;;;27.98;20.20
78839;BME280;68405;47.190;27.558;2023-04-24T09:43:19;99394.54;;;27.74;20.65
78839;BME280;68405;47.190;27.558;2023-04-24T09:45:48;99391.92;;;27.97;20.55
78839;BME280;68405;47.190;27.558;2023-04-24T09:48:17;99389.59;;;27.79;20.35
78839;BME280;68405;47.190;27.558;2023-04-24T09:50:47;99386.67;;;28.21;19.90
78839;BME280;68405;47.190;27.558;2023-04-24T09:53:25;99384.89;;;28.15;20.00
78839;BME280;68405;47.190;27.558;2023-04-24T09:55:55;99383.90;;;27.68;20.47
78839;BME280;68405;47.190;27.558;2023-04-24T09:58:27;99379.79;;;26.79;21.50
78839;BME280;68405;47.190;27.558;2023-04-24T10:00:57;99377.02;;;26.88;21.79
78839;BME280;68405;47.190;27.558;2023-04-24T10:03:29;99369.52;;;26.94;21.66
78839;BME280;68405;47.190;27.558;2023-04-24T10:06:01;99377.11;;;27.27;21.35
78839;BME280;68405;47.190;27.558;2023-04-24T10:08:36;99364.94;;;26.84;21.42
78839;BME280;68405;47.190;27.558;2023-04-24T10:11:06;99364.15;;;26.54;22.00
78839;BME280;68405;47.190;27.558;2023-04-24T10:13:37;99366.64;;;26.17;22.39
78839;BME280;68405;47.190;27.558;2023-04-24T10:16:07;99361.24;;;25.68;22.79
78839;BME280;68405;47.190;27.558;2023-04-24T10:18:37;99356.52;;;25.23;23.75
78839;BME280;68405;47.190;27.558;2023-04-24T10:21:08;99359.65;;;24.95;24.00
78839;BME280;68405;47.190;27.558;2023-04-24T10:23:38;99359.76;;;24.94;23.83
78839;BME280;68405;47.190;27.558;2023-04-24T10:26:09;99347.12;;;25.23;24.02
78839;BME280;68405;47.190;27.558;2023-04-24T10:28:40;99347.75;;;25.05;24.09
78839;BME280;68405;47.190;27.558;2023-04-24T10:31:11;99346.92;;;24.60;24.69
78839;BME280;68405;47.190;27.558;2023-04-24T10:33:41;99348.50;;;24.27;24.78
78839;BME280;68405;47.190;27.558;2023-04-24T10:36:11;99350.35;;;24.35;25.01
78839;BME280;68405;47.190;27.558;2023-04-24T10:38:43;99344.23;;;24.39;24.69
78839;BME280;68405;47.190;27.558;2023-04-24T10:41:14;99340.71;;;23.60;25.47
78839;BME280;68405;47.190;27.558;2023-04-24T10:43:49;99343.52;;;24.16;25.33
78839;BME280;68405;47.190;27.558;2023-04-24T10:46:34;99345.05;;;24.70;24.37
78839;BME280;68405;47.190;27.558;2023-04-24T10:49:06;99335.36;;;24.41;24.34
78839;BME280;68405;47.190;27.558;2023-04-24T10:51:50;99327.02;;;24.29;24.60
78839;BME280;68405;47.190;27.558;2023-04-24T10:54:25;99331.94;;;23.91;24.96
78839;BME280;68405;47.190;27.558;2023-04-24T10:57:28;99321.66;;;23.55;25.73
78839;BME280;68405;47.190;27.558;2023-04-24T11:00:15;99329.96;;;23.48;25.20
78839;BME280;68405;47.190;27.558;2023-04-24T11:02:47;99319.24;;;23.47;25.26
78839;BME280;68405;47.190;27.558;2023-04-24T11:08:21;99326.46;;;22.88;26.00
78839;BME280;68405;47.190;27.558;2023-04-24T11:10:57;99324.04;;;23.01;25.94
78839;BME280;68405;47.190;27.558;2023-04-24T11:14:00;99323.56;;;23.34;25.39
78839;BME280;68405;47.190;27.558;2023-04-24T11:16:25;99321.59;;;23.34;25.19
78839;BME280;68405;47.190;27.558;2023-04-24T11:19:04;99321.36;;;23.33;25.31
78839;BME280;68405;47.190;27.558;2023-04-24T11:21:43;99322.83;;;23.04;25.45
78839;BME280;68405;47.190;27.558;2023-04-24T11:24:30;99312.43;;;22.68;25.54
78839;BME280;68405;47.190;27.558;2023-04-24T11:27:07;99310.91;;;22.33;26.14
78839;BME280;68405;47.190;27.558;2023-04-24T11:29:44;99305.41;;;22.18;26.21
78839;BME280;68405;47.190;27.558;2023-04-24T11:32:18;99315.17;;;21.98;26.50
78839;BME280;68405;47.190;27.558;2023-04-24T11:34:53;99306.33;;;21.70;26.80
78839;BME280;68405;47.190;27.558;2023-04-24T11:37:23;99309.30;;;21.42;27.30
78839;BME280;68405;47.190;27.558;2023-04-24T11:39:55;99309.04;;;21.71;27.08
78839;BME280;68405;47.190;27.558;2023-04-24T11:42:25;99312.88;;;21.99;26.78
78839;BME280;68405;47.190;27.558;2023-04-24T11:44:55;99305.88;;;22.43;26.33
78839;BME280;68405;47.190;27.558;2023-04-24T11:47:31;99305.19;;;22.66;25.87
78839;BME280;68405;47.190;27.558;2023-04-24T11:50:02;99305.60;;;22.92;25.24
78839;BME280;68405;47.190;27.558;2023-04-24T11:52:33;99296.81;;;23.06;25.28
78839;BME280;68405;47.190;27.558;2023-04-24T11:55:06;99291.77;;;23.51;25.11
78839;BME280;68405;47.190;27.558;2023-04-24T11:57:35;99297.03;;;23.52;24.53
78839;BME280;68405;47.190;27.558;2023-04-24T12:00:14;99300.56;;;23.17;24.89
78839;BME280;68405;47.190;27.558;2023-04-24T12:02:44;99297.62;;;22.77;25.01
78839;BME280;68405;47.190;27.558;2023-04-24T12:05:22;99285.46;;;22.46;25.46
78839;BME280;68405;47.190;27.558;2023-04-24T12:07:51;99284.99;;;22.74;25.47
78839;BME280;68405;47.190;27.558;2023-04-24T12:10:22;99285.99;;;23.02;25.19
78839;BME280;68405;47.190;27.558;2023-04-24T12:12:52;99279.31;;;23.16;24.68
78839;BME280;68405;47.190;27.558;2023-04-24T12:15:23;99273.92;;;23.27;24.16
78839;BME280;68405;47.190;27.558;2023-04-24T12:17:53;99263.52;;;23.23;24.16
78839;BME280;68405;47.190;27.558;2023-04-24T12:20:27;99266.95;;;23.28;24.01
78839;BME280;68405;47.190;27.558;2023-04-24T12:22:58;99270.95;;;23.22;23.95
78839;BME280;68405;47.190;27.558;2023-04-24T12:25:29;99264.40;;;22.70;24.54
78839;BME280;68405;47.190;27.558;2023-04-24T12:28:12;99258.98;;;22.53;24.53
78839;BME280;68405;47.190;27.558;2023-04-24T12:30:43;99249.59;;;22.51;24.35
78839;BME280;68405;47.190;27.558;2023-04-24T12:33:13;99251.43;;;22.60;24.54
78839;BME280;68405;47.190;27.558;2023-04-24T12:35:48;99249.25;;;22.43;24.19
78839;BME280;68405;47.190;27.558;2023-04-24T12:38:27;99240.82;;;22.29;24.24
78839;BME280;68405;47.190;27.558;2023-04-24T12:41:05;99230.52;;;22.08;24.56
78839;BME280;68405;47.190;27.558;2023-04-24T12:43:36;99227.08;;;22.04;24.98
78839;BME280;68405;47.190;27.558;2023-04-24T12:46:06;99224.58;;;22.06;24.85
78839;BME280;68405;47.190;27.558;2023-04-24T12:48:35;99227.44;;;22.00;24.94
78839;BME280;68405;47.190;27.558;2023-04-24T12:51:05;99222.53;;;21.96;24.69
78839;BME280;68405;47.190;27.558;2023-04-24T12:53:35;99218.82;;;21.99;24.61
78839;BME280;68405;47.190;27.558;2023-04-24T12:56:05;99218.98;;;22.05;24.98
78839;BME280;68405;47.190;27.558;2023-04-24T12:58:35;99224.95;;;22.06;24.78
78839;BME280;68405;47.190;27.558;2023-04-24T13:01:04;99218.54;;;21.96;24.72
78839;BME280;68405;47.190;27.558;2023-04-24T13:03:34;99210.52;;;21.82;24.68
78839;BME280;68405;47.190;27.558;2023-04-24T13:06:04;99212.16;;;21.78;24.81
78839;BME280;68405;47.190;27.558;2023-04-24T13:08:33;99210.02;;;21.56;25.12
78839;BME280;68405;47.190;27.558;2023-04-24T13:11:03;99206.79;;;21.53;25.25
78839;BME280;68405;47.190;27.558;2023-04-24T13:13:32;99205.09;;;21.50;25.00